sensor_id;sensor_type;location;lat;lon;timestamp;pressure;altitude;pressure_sealevel;temperature;humidity
76766;BME280;65707;52.362;6.588;2022-12-18T00:00:08;102947.31;;;-3.38;81.38
76766;BME280;65707;52.362;6.588;2022-12-18T00:02:36;102936.25;;;-3.54;81.72
76766;BME280;65707;52.362;6.588;2022-12-18T00:05:03;102936.53;;;-3.70;82.21
76766;BME280;65707;52.362;6.588;2022-12-18T00:07:31;102938.50;;;-3.83;82.46
76766;BME280;65707;52.362;6.588;2022-12-18T00:09:57;102935.00;;;-3.82;82.80
76766;BME280;65707;52.362;6.588;2022-12-18T00:12:24;102943.72;;;-3.81;82.83
76766;BME280;65707;52.362;6.588;2022-12-18T00:14:54;102949.59;;;-3.69;83.02
76766;BME280;65707;52.362;6.588;2022-12-18T00:17:22;102949.94;;;-3.87;82.95
76766;BME280;65707;52.362;6.588;2022-12-18T00:19:49;102945.69;;;-3.94;83.10
76766;BME280;65707;52.362;6.588;2022-12-18T00:22:18;102948.28;;;-3.94;83.52
76766;BME280;65707;52.362;6.588;2022-12-18T00:24:45;102936.16;;;-3.98;83.08
76766;BME280;65707;52.362;6.588;2022-12-18T00:27:12;102940.50;;;-3.97;83.57
76766;BME280;65707;52.362;6.588;2022-12-18T00:29:44;102932.50;;;-3.91;83.70
76766;BME280;65707;52.362;6.588;2022-12-18T00:32:11;102941.22;;;-3.89;82.67
76766;BME280;65707;52.362;6.588;2022-12-18T00:34:39;102933.22;;;-3.81;83.28
76766;BME280;65707;52.362;6.588;2022-12-18T00:37:06;102930.56;;;-3.80;82.66
76766;BME280;65707;52.362;6.588;2022-12-18T00:39:33;102918.38;;;-3.81;82.32
76766;BME280;65707;52.362;6.588;2022-12-18T00:42:00;102926.28;;;-3.84;82.17
76766;BME280;65707;52.362;6.588;2022-12-18T00:44:44;102932.63;;;-3.97;82.20
76766;BME280;65707;52.362;6.588;2022-12-18T00:47:11;102932.56;;;-3.94;82.59
76766;BME280;65707;52.362;6.588;2022-12-18T00:49:39;102932.59;;;-3.95;82.55
76766;BME280;65707;52.362;6.588;2022-12-18T00:52:06;102937.16;;;-4.06;83.53
76766;BME280;65707;52.362;6.588;2022-12-18T00:54:33;102932.69;;;-4.01;82.67
76766;BME280;65707;52.362;6.588;2022-12-18T00:57:00;102929.41;;;-4.14;83.36
76766;BME280;65707;52.362;6.588;2022-12-18T00:59:27;102923.91;;;-3.99;82.97
76766;BME280;65707;52.362;6.588;2022-12-18T01:01:55;102925.78;;;-4.04;83.05
76766;BME280;65707;52.362;6.588;2022-12-18T01:04:22;102927.47;;;-4.03;82.91
76766;BME280;65707;52.362;6.588;2022-12-18T01:06:50;102923.16;;;-4.07;82.73
76766;BME280;65707;52.362;6.588;2022-12-18T01:09:16;102916.22;;;-4.08;82.38
76766;BME280;65707;52.362;6.588;2022-12-18T01:11:43;102909.38;;;-4.16;81.63
76766;BME280;65707;52.362;6.588;2022-12-18T01:14:10;102919.72;;;-4.09;81.93
76766;BME280;65707;52.362;6.588;2022-12-18T01:16:37;102914.59;;;-4.15;82.03
76766;BME280;65707;52.362;6.588;2022-12-18T01:19:04;102913.78;;;-4.20;81.86
76766;BME280;65707;52.362;6.588;2022-12-18T01:21:31;102918.25;;;-4.26;81.70
76766;BME280;65707;52.362;6.588;2022-12-18T01:23:59;102918.25;;;-4.26;81.03
76766;BME280;65707;52.362;6.588;2022-12-18T01:26:27;102911.41;;;-4.35;81.80
76766;BME280;65707;52.362;6.588;2022-12-18T01:28:55;102928.88;;;-4.34;81.22
76766;BME280;65707;52.362;6.588;2022-12-18T01:31:24;102927.28;;;-4.45;81.53
76766;BME280;65707;52.362;6.588;2022-12-18T01:33:53;102930.72;;;-4.40;80.82
76766;BME280;65707;52.362;6.588;2022-12-18T01:36:22;102931.59;;;-4.43;81.64
76766;BME280;65707;52.362;6.588;2022-12-18T01:38:51;102928.25;;;-4.51;80.99
76766;BME280;65707;52.362;6.588;2022-12-18T01:41:21;102929.94;;;-4.48;80.28
76766;BME280;65707;52.362;6.588;2022-12-18T01:43:54;102921.28;;;-4.52;80.15
76766;BME280;65707;52.362;6.588;2022-12-18T01:46:26;102913.56;;;-4.62;80.16
76766;BME280;65707;52.362;6.588;2022-12-18T01:48:57;102930.97;;;-4.58;81.05
76766;BME280;65707;52.362;6.588;2022-12-18T01:51:27;102931.84;;;-4.58;80.22
76766;BME280;65707;52.362;6.588;2022-12-18T01:53:55;102944.13;;;-4.63;80.38
76766;BME280;65707;52.362;6.588;2022-12-18T01:56:25;102950.41;;;-4.74;80.86
76766;BME280;65707;52.362;6.588;2022-12-18T01:58:55;102953.06;;;-4.76;80.96
76766;BME280;65707;52.362;6.588;2022-12-18T02:01:26;102954.78;;;-4.75;81.12
76766;BME280;65707;52.362;6.588;2022-12-18T02:03:55;102949.34;;;-4.61;80.30
76766;BME280;65707;52.362;6.588;2022-12-18T02:06:27;102953.78;;;-4.65;80.39
76766;BME280;65707;52.362;6.588;2022-12-18T02:09:07;102949.41;;;-4.66;80.13
76766;BME280;65707;52.362;6.588;2022-12-18T02:11:48;102948.56;;;-4.68;80.04
76766;BME280;65707;52.362;6.588;2022-12-18T02:14:24;102947.66;;;-4.65;80.38
76766;BME280;65707;52.362;6.588;2022-12-18T02:17:03;102945.13;;;-4.71;80.17
76766;BME280;65707;52.362;6.588;2022-12-18T02:19:44;102943.28;;;-4.66;80.19
76766;BME280;65707;52.362;6.588;2022-12-18T02:22:29;102930.31;;;-4.74;80.38
76766;BME280;65707;52.362;6.588;2022-12-18T02:25:13;102936.28;;;-4.64;79.91
76766;BME280;65707;52.362;6.588;2022-12-18T02:27:52;102931.97;;;-4.67;79.86
76766;BME280;65707;52.362;6.588;2022-12-18T02:30:21;102919.84;;;-4.74;79.44
76766;BME280;65707;52.362;6.588;2022-12-18T02:32:50;102925.97;;;-4.75;79.32
76766;BME280;65707;52.362;6.588;2022-12-18T02:35:23;102925.97;;;-4.75;79.50
76766;BME280;65707;52.362;6.588;2022-12-18T02:37:53;102939.09;;;-4.77;79.73
76766;BME280;65707;52.362;6.588;2022-12-18T02:40:23;102932.25;;;-4.88;80.10
76766;BME280;65707;52.362;6.588;2022-12-18T02:42:54;102931.38;;;-4.86;79.53
76766;BME280;65707;52.362;6.588;2022-12-18T02:45:21;102943.22;;;-4.60;78.93
76766;BME280;65707;52.362;6.588;2022-12-18T02:47:49;102939.06;;;-4.75;78.75
76766;BME280;65707;52.362;6.588;2022-12-18T02:50:19;102933.97;;;-4.84;79.26
76766;BME280;65707;52.362;6.588;2022-12-18T02:53:01;102936.63;;;-4.87;79.12
76766;BME280;65707;52.362;6.588;2022-12-18T02:55:45;102931.41;;;-4.89;79.09
76766;BME280;65707;52.362;6.588;2022-12-18T02:58:27;102937.38;;;-4.78;79.14
76766;BME280;65707;52.362;6.588;2022-12-18T03:01:02;102943.72;;;-4.97;79.27
76766;BME280;65707;52.362;6.588;2022-12-18T03:03:40;102949.72;;;-4.90;78.94
76766;BME280;65707;52.362;6.588;2022-12-18T03:06:15;102951.63;;;-5.03;79.37
76766;BME280;65707;52.362;6.588;2022-12-18T03:08:52;102947.19;;;-4.98;79.30
76766;BME280;65707;52.362;6.588;2022-12-18T03:11:26;102927.13;;;-4.96;78.54
76766;BME280;65707;52.362;6.588;2022-12-18T03:14:15;102934.91;;;-4.91;78.85
76766;BME280;65707;52.362;6.588;2022-12-18T03:16:48;102937.50;;;-4.90;78.68
76766;BME280;65707;52.362;6.588;2022-12-18T03:19:22;102936.66;;;-4.93;79.11
76766;BME280;65707;52.362;6.588;2022-12-18T03:21:57;102932.38;;;-4.97;78.79
76766;BME280;65707;52.362;6.588;2022-12-18T03:24:29;102926.31;;;-5.02;79.01
76766;BME280;65707;52.362;6.588;2022-12-18T03:27:00;102915.13;;;-5.13;78.78
76766;BME280;65707;52.362;6.588;2022-12-18T03:29:35;102916.78;;;-5.06;78.75
76766;BME280;65707;52.362;6.588;2022-12-18T03:32:08;102923.72;;;-5.02;79.26
76766;BME280;65707;52.362;6.588;2022-12-18T03:34:40;102921.00;;;-4.96;78.50
76766;BME280;65707;52.362;6.588;2022-12-18T03:37:09;102911.53;;;-5.03;79.33
76766;BME280;65707;52.362;6.588;2022-12-18T03:39:36;102894.91;;;-5.01;79.34
76766;BME280;65707;52.362;6.588;2022-12-18T03:42:07;102897.59;;;-5.05;79.55
76766;BME280;65707;52.362;6.588;2022-12-18T03:44:42;102904.53;;;-5.04;79.48
76766;BME280;65707;52.362;6.588;2022-12-18T03:47:19;102892.47;;;-5.13;79.33
76766;BME280;65707;52.362;6.588;2022-12-18T03:49:58;102891.44;;;-5.01;79.36
76766;BME280;65707;52.362;6.588;2022-12-18T03:52:36;102895.13;;;-5.17;79.41
76766;BME280;65707;52.362;6.588;2022-12-18T03:55:10;102905.50;;;-5.11;79.04
76766;BME280;65707;52.362;6.588;2022-12-18T03:57:38;102907.19;;;-5.07;78.96
76766;BME280;65707;52.362;6.588;2022-12-18T04:00:12;102902.00;;;-5.10;78.98
76766;BME280;65707;52.362;6.588;2022-12-18T04:02:45;102901.97;;;-5.07;78.80
76766;BME280;65707;52.362;6.588;2022-12-18T04:05:16;102906.38;;;-5.09;79.19
76766;BME280;65707;52.362;6.588;2022-12-18T04:07:45;102899.38;;;-5.10;79.04
76766;BME280;65707;52.362;6.588;2022-12-18T04:10:14;102908.94;;;-5.05;79.12
76766;BME280;65707;52.362;6.588;2022-12-18T04:12:43;102894.97;;;-5.05;78.36
76766;BME280;65707;52.362;6.588;2022-12-18T04:15:12;102894.97;;;-5.05;79.12
76766;BME280;65707;52.362;6.588;2022-12-18T04:17:41;102891.50;;;-5.09;79.28
76766;BME280;65707;52.362;6.588;2022-12-18T04:20:13;102898.47;;;-5.05;79.36
76766;BME280;65707;52.362;6.588;2022-12-18T04:22:41;102883.78;;;-5.18;79.00
76766;BME280;65707;52.362;6.588;2022-12-18T04:25:08;102897.66;;;-5.11;79.00
76766;BME280;65707;52.362;6.588;2022-12-18T04:27:38;102891.50;;;-5.09;78.95
76766;BME280;65707;52.362;6.588;2022-12-18T04:30:06;102888.06;;;-5.11;79.42
76766;BME280;65707;52.362;6.588;2022-12-18T04:32:35;102897.53;;;-5.02;78.13
76766;BME280;65707;52.362;6.588;2022-12-18T04:35:03;102892.22;;;-4.96;79.10
76766;BME280;65707;52.362;6.588;2022-12-18T04:37:33;102895.78;;;-5.00;78.45
76766;BME280;65707;52.362;6.588;2022-12-18T04:40:00;102891.50;;;-5.07;78.70
76766;BME280;65707;52.362;6.588;2022-12-18T04:42:27;102885.28;;;-4.97;79.17
76766;BME280;65707;52.362;6.588;2022-12-18T04:44:53;102886.22;;;-5.01;78.27
76766;BME280;65707;52.362;6.588;2022-12-18T04:47:20;102894.03;;;-5.00;78.33
76766;BME280;65707;52.362;6.588;2022-12-18T04:49:48;102864.41;;;-5.03;78.40
76766;BME280;65707;52.362;6.588;2022-12-18T04:52:15;102866.94;;;-4.96;78.39
76766;BME280;65707;52.362;6.588;2022-12-18T04:54:43;102874.75;;;-4.94;78.03
76766;BME280;65707;52.362;6.588;2022-12-18T04:57:09;102877.53;;;-5.06;78.41
76766;BME280;65707;52.362;6.588;2022-12-18T04:59:36;102863.59;;;-5.07;78.65
76766;BME280;65707;52.362;6.588;2022-12-18T05:02:03;102858.22;;;-4.98;78.46
76766;BME280;65707;52.362;6.588;2022-12-18T05:04:30;102868.66;;;-4.96;78.65
76766;BME280;65707;52.362;6.588;2022-12-18T05:06:58;102876.44;;;-4.89;78.33
76766;BME280;65707;52.362;6.588;2022-12-18T05:09:25;102875.69;;;-4.98;78.29
76766;BME280;65707;52.362;6.588;2022-12-18T05:11:52;102869.59;;;-5.00;78.50
76766;BME280;65707;52.362;6.588;2022-12-18T05:14:19;102887.78;;;-4.91;78.10
76766;BME280;65707;52.362;6.588;2022-12-18T05:16:46;102890.44;;;-4.93;78.32
76766;BME280;65707;52.362;6.588;2022-12-18T05:19:13;102886.25;;;-5.06;77.34
76766;BME280;65707;52.362;6.588;2022-12-18T05:21:40;102887.88;;;-4.97;78.21
76766;BME280;65707;52.362;6.588;2022-12-18T05:24:08;102885.41;;;-5.06;78.55
76766;BME280;65707;52.362;6.588;2022-12-18T05:26:35;102893.13;;;-4.99;77.63
76766;BME280;65707;52.362;6.588;2022-12-18T05:29:02;102890.47;;;-4.94;78.02
76766;BME280;65707;52.362;6.588;2022-12-18T05:31:29;102894.91;;;-5.01;77.67
76766;BME280;65707;52.362;6.588;2022-12-18T05:33:55;102893.13;;;-4.97;78.03
76766;BME280;65707;52.362;6.588;2022-12-18T05:36:22;102893.06;;;-4.94;77.55
76766;BME280;65707;52.362;6.588;2022-12-18T05:38:49;102894.06;;;-5.03;77.43
76766;BME280;65707;52.362;6.588;2022-12-18T05:41:17;102901.91;;;-5.04;77.45
76766;BME280;65707;52.362;6.588;2022-12-18T05:43:44;102896.84;;;-5.15;77.21
76766;BME280;65707;52.362;6.588;2022-12-18T05:46:12;102898.66;;;-5.21;76.96
76766;BME280;65707;52.362;6.588;2022-12-18T05:48:40;102906.41;;;-5.15;77.39
76766;BME280;65707;52.362;6.588;2022-12-18T05:51:10;102907.28;;;-5.13;77.56
76766;BME280;65707;52.362;6.588;2022-12-18T05:53:38;102916.09;;;-5.19;76.21
76766;BME280;65707;52.362;6.588;2022-12-18T05:56:07;102923.06;;;-5.19;76.90
76766;BME280;65707;52.362;6.588;2022-12-18T05:58:38;102927.50;;;-5.27;75.90
76766;BME280;65707;52.362;6.588;2022-12-18T06:01:07;102924.94;;;-5.32;76.24
76766;BME280;65707;52.362;6.588;2022-12-18T06:03:35;102928.59;;;-5.46;76.59
76766;BME280;65707;52.362;6.588;2022-12-18T06:06:03;102923.41;;;-5.49;76.70
76766;BME280;65707;52.362;6.588;2022-12-18T06:08:30;102925.16;;;-5.51;76.39
76766;BME280;65707;52.362;6.588;2022-12-18T06:10:57;102924.38;;;-5.62;75.89
76766;BME280;65707;52.362;6.588;2022-12-18T06:13:24;102940.03;;;-5.56;76.28
76766;BME280;65707;52.362;6.588;2022-12-18T06:15:52;102938.34;;;-5.63;76.29
76766;BME280;65707;52.362;6.588;2022-12-18T06:18:19;102939.28;;;-5.67;76.24
76766;BME280;65707;52.362;6.588;2022-12-18T06:20:54;102947.94;;;-5.61;76.16
76766;BME280;65707;52.362;6.588;2022-12-18T06:23:22;102937.56;;;-5.71;77.09
76766;BME280;65707;52.362;6.588;2022-12-18T06:25:49;102939.34;;;-5.76;77.13
76766;BME280;65707;52.362;6.588;2022-12-18T06:28:16;102942.06;;;-5.82;77.88
76766;BME280;65707;52.362;6.588;2022-12-18T06:30:43;102928.91;;;-5.78;77.58
76766;BME280;65707;52.362;6.588;2022-12-18T06:33:11;102931.66;;;-5.87;78.10
76766;BME280;65707;52.362;6.588;2022-12-18T06:35:38;102937.63;;;-5.77;78.07
76766;BME280;65707;52.362;6.588;2022-12-18T06:38:05;102928.81;;;-5.67;78.32
76766;BME280;65707;52.362;6.588;2022-12-18T06:40:32;102925.44;;;-5.77;77.73
76766;BME280;65707;52.362;6.588;2022-12-18T06:42:59;102916.94;;;-6.00;78.61
76766;BME280;65707;52.362;6.588;2022-12-18T06:45:26;102916.88;;;-5.89;78.51
76766;BME280;65707;52.362;6.588;2022-12-18T06:47:53;102912.66;;;-6.05;79.30
76766;BME280;65707;52.362;6.588;2022-12-18T06:50:21;102899.47;;;-5.93;79.35
76766;BME280;65707;52.362;6.588;2022-12-18T06:52:48;102897.75;;;-5.94;79.25
76766;BME280;65707;52.362;6.588;2022-12-18T06:55:15;102888.84;;;-5.77;78.63
76766;BME280;65707;52.362;6.588;2022-12-18T06:57:42;102888.72;;;-5.66;78.12
76766;BME280;65707;52.362;6.588;2022-12-18T07:00:10;102887.84;;;-5.67;78.13
76766;BME280;65707;52.362;6.588;2022-12-18T07:02:37;102886.19;;;-5.72;79.07
76766;BME280;65707;52.362;6.588;2022-12-18T07:05:05;102886.09;;;-5.66;78.87
76766;BME280;65707;52.362;6.588;2022-12-18T07:07:34;102889.50;;;-5.57;79.70
76766;BME280;65707;52.362;6.588;2022-12-18T07:10:03;102883.34;;;-5.53;79.38
76766;BME280;65707;52.362;6.588;2022-12-18T07:12:30;102885.84;;;-5.42;79.66
76766;BME280;65707;52.362;6.588;2022-12-18T07:14:56;102879.66;;;-5.35;79.93
76766;BME280;65707;52.362;6.588;2022-12-18T07:17:23;102865.59;;;-5.27;79.51
76766;BME280;65707;52.362;6.588;2022-12-18T07:19:50;102863.75;;;-5.19;79.82
76766;BME280;65707;52.362;6.588;2022-12-18T07:22:17;102867.94;;;-5.07;80.10
76766;BME280;65707;52.362;6.588;2022-12-18T07:24:45;102867.94;;;-5.07;78.74
76766;BME280;65707;52.362;6.588;2022-12-18T07:27:12;102858.34;;;-5.07;79.76
76766;BME280;65707;52.362;6.588;2022-12-18T07:29:39;102851.34;;;-5.03;79.64
76766;BME280;65707;52.362;6.588;2022-12-18T07:32:06;102866.84;;;-4.90;78.87
76766;BME280;65707;52.362;6.588;2022-12-18T07:34:33;102872.81;;;-4.80;79.17
76766;BME280;65707;52.362;6.588;2022-12-18T07:37:00;102876.41;;;-4.87;79.16
76766;BME280;65707;52.362;6.588;2022-12-18T07:39:27;102873.69;;;-4.80;79.23
76766;BME280;65707;52.362;6.588;2022-12-18T07:41:55;102878.78;;;-4.70;79.18
76766;BME280;65707;52.362;6.588;2022-12-18T07:44:40;102867.38;;;-4.68;78.50
76766;BME280;65707;52.362;6.588;2022-12-18T07:47:07;102884.97;;;-4.76;79.20
76766;BME280;65707;52.362;6.588;2022-12-18T07:49:34;102884.06;;;-4.73;78.78
76766;BME280;65707;52.362;6.588;2022-12-18T07:52:00;102890.13;;;-4.70;78.81
76766;BME280;65707;52.362;6.588;2022-12-18T07:54:27;102870.72;;;-4.58;78.60
76766;BME280;65707;52.362;6.588;2022-12-18T07:56:56;102868.88;;;-4.52;77.79
76766;BME280;65707;52.362;6.588;2022-12-18T07:59:22;102868.94;;;-4.55;77.79
76766;BME280;65707;52.362;6.588;2022-12-18T08:01:49;102873.25;;;-4.51;77.86
76766;BME280;65707;52.362;6.588;2022-12-18T08:04:16;102870.75;;;-4.60;77.92
76766;BME280;65707;52.362;6.588;2022-12-18T08:06:43;102874.06;;;-4.49;78.64
76766;BME280;65707;52.362;6.588;2022-12-18T08:09:10;102859.31;;;-4.53;78.10
76766;BME280;65707;52.362;6.588;2022-12-18T08:11:37;102860.88;;;-4.43;77.34
76766;BME280;65707;52.362;6.588;2022-12-18T08:14:06;102847.75;;;-4.40;77.52
76766;BME280;65707;52.362;6.588;2022-12-18T08:16:33;102832.16;;;-4.47;78.00
76766;BME280;65707;52.362;6.588;2022-12-18T08:19:00;102857.38;;;-4.42;77.30
76766;BME280;65707;52.362;6.588;2022-12-18T08:21:28;102856.28;;;-4.27;77.41
76766;BME280;65707;52.362;6.588;2022-12-18T08:23:57;102846.44;;;-4.13;76.98
76766;BME280;65707;52.362;6.588;2022-12-18T08:26:27;102840.25;;;-4.11;76.46
76766;BME280;65707;52.362;6.588;2022-12-18T08:28:57;102843.06;;;-4.21;76.61
76766;BME280;65707;52.362;6.588;2022-12-18T08:31:28;102849.13;;;-4.18;77.31
76766;BME280;65707;52.362;6.588;2022-12-18T08:33:56;102825.19;;;-3.98;76.31
76766;BME280;65707;52.362;6.588;2022-12-18T08:36:24;102822.47;;;-3.94;75.41
76766;BME280;65707;52.362;6.588;2022-12-18T08:38:51;102811.84;;;-3.86;75.27
76766;BME280;65707;52.362;6.588;2022-12-18T08:41:19;102812.97;;;-3.99;76.11
76766;BME280;65707;52.362;6.588;2022-12-18T08:43:46;102813.69;;;-3.91;75.72
76766;BME280;65707;52.362;6.588;2022-12-18T08:46:37;102823.97;;;-3.81;75.31
76766;BME280;65707;52.362;6.588;2022-12-18T08:49:06;102833.50;;;-3.77;75.76
76766;BME280;65707;52.362;6.588;2022-12-18T08:51:34;102833.41;;;-3.72;75.35
76766;BME280;65707;52.362;6.588;2022-12-18T08:54:02;102823.59;;;-3.63;74.79
76766;BME280;65707;52.362;6.588;2022-12-18T08:56:30;102815.34;;;-3.43;74.92
76766;BME280;65707;52.362;6.588;2022-12-18T08:59:00;102821.41;;;-3.40;74.64
76766;BME280;65707;52.362;6.588;2022-12-18T09:01:27;102818.63;;;-3.32;74.76
76766;BME280;65707;52.362;6.588;2022-12-18T09:03:55;102811.09;;;-3.09;73.98
76766;BME280;65707;52.362;6.588;2022-12-18T09:06:23;102806.56;;;-3.02;74.13
76766;BME280;65707;52.362;6.588;2022-12-18T09:08:51;102814.38;;;-2.99;74.79
76766;BME280;65707;52.362;6.588;2022-12-18T09:11:20;102804.53;;;-2.90;74.33
76766;BME280;65707;52.362;6.588;2022-12-18T09:13:48;102797.53;;;-2.89;73.83
76766;BME280;65707;52.362;6.588;2022-12-18T09:16:16;102813.91;;;-2.78;73.72
76766;BME280;65707;52.362;6.588;2022-12-18T09:18:43;102819.84;;;-2.70;73.54
76766;BME280;65707;52.362;6.588;2022-12-18T09:21:13;102814.81;;;-2.81;73.72
76766;BME280;65707;52.362;6.588;2022-12-18T09:23:42;102817.00;;;-2.61;73.65
76766;BME280;65707;52.362;6.588;2022-12-18T09:26:09;102817.44;;;-2.44;73.37
76766;BME280;65707;52.362;6.588;2022-12-18T09:28:36;102822.47;;;-2.02;72.63
76766;BME280;65707;52.362;6.588;2022-12-18T09:31:05;102813.03;;;-2.10;72.93
76766;BME280;65707;52.362;6.588;2022-12-18T09:33:34;102800.53;;;-1.69;70.84
76766;BME280;65707;52.362;6.588;2022-12-18T09:36:05;102792.22;;;-1.55;70.77
76766;BME280;65707;52.362;6.588;2022-12-18T09:38:34;102781.75;;;-1.27;70.02
76766;BME280;65707;52.362;6.588;2022-12-18T09:41:05;102776.25;;;-1.20;69.53
76766;BME280;65707;52.362;6.588;2022-12-18T09:43:48;102777.66;;;-0.81;68.51
76766;BME280;65707;52.362;6.588;2022-12-18T09:46:23;102779.09;;;-0.71;68.06
76766;BME280;65707;52.362;6.588;2022-12-18T09:48:56;102771.50;;;-0.54;67.42
76766;BME280;65707;52.362;6.588;2022-12-18T09:51:27;102767.31;;;-0.61;67.30
76766;BME280;65707;52.362;6.588;2022-12-18T09:54:03;102768.81;;;-0.52;67.08
76766;BME280;65707;52.362;6.588;2022-12-18T09:56:35;102773.72;;;-0.42;66.81
76766;BME280;65707;52.362;6.588;2022-12-18T09:59:17;102783.19;;;-0.62;66.71
76766;BME280;65707;52.362;6.588;2022-12-18T10:01:49;102785.66;;;-0.58;67.21
76766;BME280;65707;52.362;6.588;2022-12-18T10:04:19;102787.41;;;-0.57;67.26
76766;BME280;65707;52.362;6.588;2022-12-18T10:06:51;102768.25;;;-0.62;67.54
76766;BME280;65707;52.362;6.588;2022-12-18T10:09:28;102778.16;;;-0.44;67.38
76766;BME280;65707;52.362;6.588;2022-12-18T10:12:07;102759.00;;;-0.49;67.30
76766;BME280;65707;52.362;6.588;2022-12-18T10:14:44;102756.06;;;-0.40;67.85
76766;BME280;65707;52.362;6.588;2022-12-18T10:17:25;102746.63;;;-0.21;67.01
76766;BME280;65707;52.362;6.588;2022-12-18T10:19:59;102735.25;;;-0.23;67.01
76766;BME280;65707;52.362;6.588;2022-12-18T10:22:41;102715.81;;;-0.20;66.81
76766;BME280;65707;52.362;6.588;2022-12-18T10:25:22;102716.84;;;-0.24;67.37
76766;BME280;65707;52.362;6.588;2022-12-18T10:27:54;102693.91;;;-0.22;67.00
76766;BME280;65707;52.362;6.588;2022-12-18T10:30:25;102702.88;;;-0.03;66.93
76766;BME280;65707;52.362;6.588;2022-12-18T10:32:52;102685.97;;;0.26;66.13
76766;BME280;65707;52.362;6.588;2022-12-18T10:35:23;102673.06;;;0.18;66.27
76766;BME280;65707;52.362;6.588;2022-12-18T10:38:03;102661.06;;;0.33;65.79
76766;BME280;65707;52.362;6.588;2022-12-18T10:40:53;102670.22;;;0.46;65.44
76766;BME280;65707;52.362;6.588;2022-12-18T10:43:24;102662.72;;;0.57;64.67
76766;BME280;65707;52.362;6.588;2022-12-18T10:46:01;102666.50;;;0.51;65.31
76766;BME280;65707;52.362;6.588;2022-12-18T10:48:48;102681.47;;;0.51;65.18
76766;BME280;65707;52.362;6.588;2022-12-18T10:51:24;102682.84;;;0.61;64.91
76766;BME280;65707;52.362;6.588;2022-12-18T10:53:55;102669.44;;;0.65;65.18
76766;BME280;65707;52.362;6.588;2022-12-18T10:56:29;102668.19;;;0.52;65.67
76766;BME280;65707;52.362;6.588;2022-12-18T10:58:59;102650.91;;;0.67;65.20
76766;BME280;65707;52.362;6.588;2022-12-18T11:01:28;102641.41;;;0.63;64.45
76766;BME280;65707;52.362;6.588;2022-12-18T11:04:16;102643.78;;;0.69;64.89
76766;BME280;65707;52.362;6.588;2022-12-18T11:06:54;102647.09;;;0.74;64.86
76766;BME280;65707;52.362;6.588;2022-12-18T11:09:27;102652.03;;;0.60;65.01
76766;BME280;65707;52.362;6.588;2022-12-18T11:11:58;102645.56;;;0.68;64.97
76766;BME280;65707;52.362;6.588;2022-12-18T11:14:28;102632.72;;;0.81;64.32
76766;BME280;65707;52.362;6.588;2022-12-18T11:16:58;102639.53;;;0.65;64.85
76766;BME280;65707;52.362;6.588;2022-12-18T11:19:32;102636.22;;;0.81;64.57
76766;BME280;65707;52.362;6.588;2022-12-18T11:22:04;102636.91;;;0.86;64.62
76766;BME280;65707;52.362;6.588;2022-12-18T11:24:52;102628.22;;;0.83;64.81
76766;BME280;65707;52.362;6.588;2022-12-18T11:27:23;102619.44;;;0.82;65.38
76766;BME280;65707;52.362;6.588;2022-12-18T11:29:50;102616.31;;;0.73;65.68
76766;BME280;65707;52.362;6.588;2022-12-18T11:32:25;102623.50;;;1.11;64.05
76766;BME280;65707;52.362;6.588;2022-12-18T11:35:03;102619.97;;;0.90;64.94
76766;BME280;65707;52.362;6.588;2022-12-18T11:37:38;102632.06;;;1.17;64.23
76766;BME280;65707;52.362;6.588;2022-12-18T11:40:14;102623.31;;;1.35;62.78
76766;BME280;65707;52.362;6.588;2022-12-18T11:42:50;102613.41;;;1.40;62.74
76766;BME280;65707;52.362;6.588;2022-12-18T11:45:27;102610.13;;;1.54;62.32
76766;BME280;65707;52.362;6.588;2022-12-18T11:48:00;102596.22;;;1.50;62.28
76766;BME280;65707;52.362;6.588;2022-12-18T11:50:45;102599.19;;;1.63;62.12
76766;BME280;65707;52.362;6.588;2022-12-18T11:53:15;102608.44;;;1.53;62.22
76766;BME280;65707;52.362;6.588;2022-12-18T11:55:51;102598.47;;;1.78;60.87
76766;BME280;65707;52.362;6.588;2022-12-18T11:58:40;102601.22;;;1.56;61.69
76766;BME280;65707;52.362;6.588;2022-12-18T12:01:23;102590.81;;;1.72;62.41
76766;BME280;65707;52.362;6.588;2022-12-18T12:07:30;102575.88;;;1.71;61.67
76766;BME280;65707;52.362;6.588;2022-12-18T12:10:13;102577.59;;;1.72;61.32
76766;BME280;65707;52.362;6.588;2022-12-18T12:13:06;102577.94;;;1.65;61.51
76766;BME280;65707;52.362;6.588;2022-12-18T12:15:54;102571.56;;;1.69;61.32
76766;BME280;65707;52.362;6.588;2022-12-18T12:18:37;102569.88;;;1.68;61.89
76766;BME280;65707;52.362;6.588;2022-12-18T12:21:20;102555.13;;;1.62;61.83
76766;BME280;65707;52.362;6.588;2022-12-18T12:23:58;102540.41;;;1.75;61.36
76766;BME280;65707;52.362;6.588;2022-12-18T12:26:42;102529.97;;;1.72;60.90
76766;BME280;65707;52.362;6.588;2022-12-18T12:29:25;102530.19;;;1.86;60.62
76766;BME280;65707;52.362;6.588;2022-12-18T12:32:16;102512.94;;;1.96;59.83
76766;BME280;65707;52.362;6.588;2022-12-18T12:35:05;102521.38;;;1.86;60.33
76766;BME280;65707;52.362;6.588;2022-12-18T12:37:48;102514.09;;;1.72;61.15
76766;BME280;65707;52.362;6.588;2022-12-18T12:40:27;102503.66;;;1.88;60.37
76766;BME280;65707;52.362;6.588;2022-12-18T12:43:01;102516.66;;;1.92;59.47
76766;BME280;65707;52.362;6.588;2022-12-18T12:45:42;102508.44;;;1.80;60.24
76766;BME280;65707;52.362;6.588;2022-12-18T12:48:22;102499.16;;;1.90;59.26
76766;BME280;65707;52.362;6.588;2022-12-18T12:51:00;102500.66;;;1.77;60.71
76766;BME280;65707;52.362;6.588;2022-12-18T12:53:32;102504.38;;;1.91;59.50
76766;BME280;65707;52.362;6.588;2022-12-18T12:56:03;102501.16;;;1.85;59.79
76766;BME280;65707;52.362;6.588;2022-12-18T12:58:36;102488.50;;;1.91;59.46
76766;BME280;65707;52.362;6.588;2022-12-18T13:01:17;102487.03;;;1.84;59.23
76766;BME280;65707;52.362;6.588;2022-12-18T13:03:59;102478.19;;;1.85;59.11
76766;BME280;65707;52.362;6.588;2022-12-18T13:06:43;102481.09;;;1.79;59.48
76766;BME280;65707;52.362;6.588;2022-12-18T13:09:16;102477.47;;;1.82;59.27
76766;BME280;65707;52.362;6.588;2022-12-18T13:11:45;102479.41;;;1.78;59.44
76766;BME280;65707;52.362;6.588;2022-12-18T13:14:32;102482.69;;;1.83;59.55
76766;BME280;65707;52.362;6.588;2022-12-18T13:17:26;102482.19;;;1.75;58.94